createdAt,value
2019-04-16T00:02:38.774Z,7.20
2019-04-16T00:05:15.356Z,6.70
2019-04-16T00:07:47.937Z,6.43
2019-04-16T00:10:35.841Z,6.97
2019-04-16T00:13:23.433Z,7.20
2019-04-16T00:15:53.942Z,7.03
2019-04-16T00:18:23.957Z,7.43
2019-04-16T00:21:24.921Z,6.33
2019-04-16T00:24:18.560Z,7.83
2019-04-16T00:26:51.597Z,7.00
2019-04-16T00:29:21.563Z,7.53
2019-04-16T00:32:01.262Z,7.70
2019-04-16T00:34:31.506Z,8.57
2019-04-16T00:37:01.446Z,7.17
2019-04-16T00:39:31.729Z,8.10
2019-04-16T00:42:02.440Z,6.03
2019-04-16T00:44:32.335Z,7.57
2019-04-16T00:47:02.544Z,7.90
2019-04-16T00:49:32.485Z,7.67
2019-04-16T00:52:05.697Z,7.10
2019-04-16T00:54:34.400Z,7.87
2019-04-16T00:57:04.485Z,6.97
2019-04-16T00:59:34.734Z,6.47
2019-04-16T01:02:04.758Z,6.83
2019-04-16T01:04:35.279Z,7.03
2019-04-16T01:07:05.174Z,7.63
2019-04-16T01:09:35.364Z,7.97
2019-04-16T01:12:05.419Z,8.80
2019-04-16T01:14:35.364Z,8.70
2019-04-16T01:17:05.739Z,9.00
2019-04-16T01:19:38.327Z,8.10
2019-04-16T01:22:08.044Z,8.53
2019-04-16T01:24:38.568Z,8.23
2019-04-16T01:27:08.504Z,8.23
2019-04-16T01:29:39.119Z,7.10
2019-04-16T01:32:31.691Z,7.97
2019-04-16T01:35:19.815Z,7.93
2019-04-16T01:38:09.411Z,8.73
2019-04-16T01:40:59.718Z,7.50
2019-04-16T01:43:29.602Z,8.87
2019-04-16T01:46:01.281Z,9.10
2019-04-16T01:48:31.468Z,8.60
2019-04-16T01:51:01.756Z,8.97
2019-04-16T01:53:31.707Z,8.03
2019-04-16T01:56:01.605Z,8.23
2019-04-16T01:58:34.013Z,8.10
2019-04-16T02:01:03.768Z,8.30
2019-04-16T02:03:33.672Z,8.67
2019-04-16T02:06:03.958Z,10.00
2019-04-16T02:08:34.494Z,8.27
2019-04-16T02:11:04.425Z,8.00
2019-04-16T02:13:34.608Z,8.20
2019-04-16T02:16:04.600Z,8.43
2019-04-16T02:18:34.545Z,8.30
2019-04-16T02:21:04.476Z,7.77
2019-04-16T02:23:34.662Z,7.97
2019-04-16T02:26:04.941Z,8.20
2019-04-16T02:28:34.918Z,8.80
2019-04-16T02:31:12.887Z,8.90
2019-04-16T02:33:37.880Z,9.30
2019-04-16T02:36:07.995Z,8.30
2019-04-16T02:38:46.433Z,8.30
2019-04-16T02:41:10.441Z,8.80
2019-04-16T02:43:41.347Z,9.17
2019-04-16T02:46:11.395Z,8.37
2019-04-16T02:48:41.743Z,8.77
2019-04-16T02:51:41.291Z,7.40
2019-04-16T02:54:17.111Z,8.83
2019-04-16T02:56:56.859Z,9.23
2019-04-16T02:59:29.753Z,10.07
2019-04-16T03:02:23.048Z,9.03
2019-04-16T03:05:06.308Z,9.00
2019-04-16T03:07:36.195Z,9.17
2019-04-16T03:10:12.298Z,9.07
2019-04-16T03:12:38.903Z,8.87
2019-04-16T03:15:08.924Z,9.50
2019-04-16T03:17:43.630Z,8.43
2019-04-16T03:20:14.700Z,8.90
2019-04-16T03:22:44.729Z,8.90
2019-04-16T03:25:15.445Z,9.00
2019-04-16T03:27:45.407Z,9.07
2019-04-16T03:30:15.765Z,9.77
2019-04-16T03:32:50.497Z,10.10
2019-04-16T03:35:25.415Z,10.47
2019-04-16T03:37:53.279Z,9.37
2019-04-16T03:40:25.429Z,9.60
2019-04-16T03:42:59.014Z,10.57
2019-04-16T03:45:27.549Z,10.13
2019-04-16T03:47:57.515Z,10.70
2019-04-16T03:50:31.037Z,9.43
2019-04-16T03:52:59.581Z,10.77
2019-04-16T03:55:29.498Z,10.00
2019-04-16T03:58:05.197Z,9.73
2019-04-16T04:00:31.674Z,10.70
2019-04-16T04:03:01.932Z,9.10
2019-04-16T04:05:34.977Z,10.53
2019-04-16T04:08:03.643Z,10.30
2019-04-16T04:10:36.963Z,9.40
2019-04-16T04:13:05.909Z,9.80
2019-04-16T04:15:36.183Z,9.90
2019-04-16T04:18:11.066Z,11.03
2019-04-16T04:20:39.167Z,9.90
2019-04-16T04:23:09.097Z,10.50
2019-04-16T04:25:39.649Z,10.07
2019-04-16T04:28:09.854Z,9.57
2019-04-16T04:30:39.773Z,9.10
2019-04-16T04:33:10.475Z,10.13
2019-04-16T04:35:40.425Z,9.73
2019-04-16T04:38:10.403Z,10.17
2019-04-16T04:40:44.702Z,11.47
2019-04-16T04:43:12.743Z,12.67
2019-04-16T04:45:42.633Z,13.13
2019-04-16T04:48:12.872Z,12.73
2019-04-16T04:50:42.844Z,12.07
2019-04-16T04:53:15.617Z,9.93
2019-04-16T04:55:44.751Z,10.07
2019-04-16T04:58:15.281Z,11.37
2019-04-16T05:00:45.379Z,11.30
2019-04-16T05:03:26.563Z,10.97
2019-04-16T05:05:58.095Z,10.70
2019-04-16T05:08:29.286Z,10.13
2019-04-16T05:11:02.895Z,10.40
2019-04-16T05:13:31.801Z,10.73
2019-04-16T05:16:02.710Z,10.60
2019-04-16T05:18:33.429Z,9.97
2019-04-16T05:21:03.462Z,9.47
2019-04-16T05:23:33.379Z,8.87
2019-04-16T05:26:04.841Z,10.20
2019-04-16T05:28:35.303Z,11.23
2019-04-16T05:31:05.563Z,10.40
2019-04-16T05:33:37.530Z,10.10
2019-04-16T05:36:07.691Z,10.73
2019-04-16T05:38:37.613Z,11.20
2019-04-16T05:41:13.707Z,11.63
2019-04-16T05:43:39.271Z,12.20
2019-04-16T05:46:09.970Z,10.70
2019-04-16T05:48:40.240Z,10.20
2019-04-16T05:51:10.799Z,9.83
2019-04-16T05:53:42.614Z,10.40
2019-04-16T05:56:24.970Z,11.17
2019-04-16T05:58:55.529Z,10.53
2019-04-16T06:01:45.466Z,9.67
2019-04-16T06:04:15.236Z,10.30
2019-04-16T06:06:45.208Z,10.70
2019-04-16T06:09:15.793Z,9.97
2019-04-16T06:11:46.006Z,11.40
2019-04-16T06:14:31.492Z,9.40
2019-04-16T06:17:20.469Z,9.87
2019-04-16T06:20:11.423Z,9.93
2019-04-16T06:23:03.772Z,10.00
2019-04-16T06:25:42.167Z,9.80
2019-04-16T06:28:17.894Z,9.63
2019-04-16T06:31:05.761Z,11.13
2019-04-16T06:33:39.521Z,9.90
2019-04-16T06:36:27.134Z,8.90
2019-04-16T06:39:26.544Z,11.40
2019-04-16T06:42:31.451Z,9.33
2019-04-16T06:45:05.890Z,10.60
2019-04-16T06:47:49.959Z,10.00
2019-04-16T06:50:32.540Z,11.50
2019-04-16T06:53:19.495Z,10.00
2019-04-16T06:56:11.416Z,9.83
2019-04-16T06:58:51.252Z,9.47
2019-04-16T07:01:36.970Z,9.10
2019-04-16T07:04:16.885Z,10.23
2019-04-16T07:07:07.830Z,11.70
2019-04-16T07:09:47.008Z,9.67
2019-04-16T07:12:19.730Z,9.77
2019-04-16T07:14:49.940Z,10.83
2019-04-16T07:17:19.897Z,10.30
2019-04-16T07:19:50.160Z,9.60
2019-04-16T07:22:21.242Z,10.13
2019-04-16T07:24:56.280Z,9.90
2019-04-16T07:27:34.894Z,10.57
2019-04-16T07:30:19.985Z,10.50
2019-04-16T07:33:13.300Z,9.27
2019-04-16T07:35:55.687Z,10.07
2019-04-16T07:38:36.231Z,9.43
2019-04-16T07:41:25.493Z,9.03
2019-04-16T07:44:13.248Z,11.20
2019-04-16T07:47:01.081Z,10.33
2019-04-16T07:49:36.109Z,9.57
2019-04-16T07:52:15.214Z,10.70
2019-04-16T07:54:57.566Z,9.40
2019-04-16T07:57:27.557Z,11.13
2019-04-16T07:59:57.497Z,10.47
2019-04-16T08:02:27.533Z,11.27
2019-04-16T08:04:57.834Z,10.23
2019-04-16T08:07:27.774Z,9.60
2019-04-16T08:10:01.084Z,9.27
2019-04-16T08:12:31.094Z,11.33
2019-04-16T08:15:13.328Z,10.10
2019-04-16T08:17:33.466Z,10.87
2019-04-16T08:20:03.841Z,10.40
2019-04-16T08:22:34.614Z,11.23
2019-04-16T08:25:04.760Z,10.17
2019-04-16T08:27:35.056Z,10.43
2019-04-16T08:30:07.049Z,10.90
2019-04-16T08:32:36.988Z,10.50
2019-04-16T08:35:07.383Z,10.77
2019-04-16T08:37:48.275Z,10.00
2019-04-16T08:40:12.182Z,11.10
2019-04-16T08:42:44.603Z,10.63
2019-04-16T08:45:14.181Z,12.23
2019-04-16T08:47:45.214Z,10.63
2019-04-16T08:50:16.127Z,9.80
2019-04-16T08:52:46.386Z,10.40
2019-04-16T08:55:16.323Z,10.87
2019-04-16T08:57:47.127Z,11.27
2019-04-16T09:00:18.461Z,11.00
2019-04-16T09:02:48.413Z,10.73
2019-04-16T09:05:18.630Z,11.00
2019-04-16T09:07:51.051Z,10.83
2019-04-16T09:10:23.711Z,11.73
2019-04-16T09:13:03.370Z,10.53
2019-04-16T09:15:31.055Z,11.87
2019-04-16T09:18:17.936Z,9.77
2019-04-16T09:20:49.175Z,9.50
2019-04-16T09:23:19.033Z,9.20
2019-04-16T09:26:14.538Z,8.40
2019-04-16T09:28:48.925Z,8.07
2019-04-16T09:31:40.609Z,7.70
2019-04-16T09:34:20.461Z,7.20
2019-04-16T09:37:10.682Z,7.20
2019-04-16T09:39:57.465Z,7.00
2019-04-16T09:42:27.362Z,7.30
2019-04-16T09:44:57.234Z,6.70
2019-04-16T09:47:29.209Z,7.30
2019-04-16T09:49:58.658Z,7.87
2019-04-16T09:52:28.579Z,7.20
2019-04-16T09:54:58.504Z,7.50
2019-04-16T09:57:31.301Z,7.30
2019-04-16T10:00:01.242Z,6.70
2019-04-16T10:02:33.657Z,6.87
2019-04-16T10:05:03.629Z,6.67
2019-04-16T10:07:33.508Z,7.00
2019-04-16T10:10:03.445Z,7.50
2019-04-16T10:12:33.386Z,7.57
2019-04-16T10:15:03.350Z,7.90
2019-04-16T10:17:33.182Z,8.10
2019-04-16T10:20:03.078Z,7.33
2019-04-16T10:22:32.902Z,7.70
2019-04-16T10:25:11.149Z,8.60
2019-04-16T10:27:43.320Z,8.73
2019-04-16T10:30:25.821Z,8.20
2019-04-16T10:32:55.736Z,8.37
2019-04-16T10:35:26.576Z,8.17
2019-04-16T10:37:56.477Z,7.97
2019-04-16T10:40:41.517Z,7.43
2019-04-16T10:43:44.766Z,8.70
2019-04-16T10:46:29.358Z,8.50
2019-04-16T10:49:14.391Z,9.77
2019-04-16T10:52:04.913Z,9.20
2019-04-16T10:54:42.463Z,9.07
2019-04-16T10:57:29.891Z,8.80
2019-04-16T11:00:12.534Z,8.60
2019-04-16T11:02:45.300Z,9.40
2019-04-16T11:05:28.572Z,9.33
2019-04-16T11:07:58.712Z,9.47
2019-04-16T11:10:28.598Z,8.73
2019-04-16T11:12:58.883Z,9.43
2019-04-16T11:15:28.847Z,9.03
2019-04-16T11:17:58.709Z,10.27
2019-04-16T11:20:28.798Z,11.60
2019-04-16T11:22:58.655Z,11.07
2019-04-16T11:25:28.855Z,12.70
2019-04-16T11:27:58.733Z,11.73
2019-04-16T11:30:35.631Z,12.53
2019-04-16T11:33:05.740Z,11.27
2019-04-16T11:35:35.727Z,13.10
2019-04-16T11:38:06.171Z,10.73
2019-04-16T11:40:36.085Z,11.93
2019-04-16T11:43:06.132Z,12.80
2019-04-16T11:45:36.233Z,13.53
2019-04-16T11:48:06.189Z,10.73
2019-04-16T11:50:36.592Z,11.63
2019-04-16T11:53:06.507Z,11.43
2019-04-16T11:55:36.412Z,11.47
2019-04-16T11:58:10.533Z,12.60
2019-04-16T12:00:46.146Z,12.80
2019-04-16T12:03:24.563Z,11.33
2019-04-16T12:06:02.132Z,12.60
2019-04-16T12:08:42.781Z,12.40
2019-04-16T12:11:26.734Z,11.97
2019-04-16T12:14:28.861Z,13.03
2019-04-16T12:16:52.697Z,13.00
2019-04-16T12:19:40.215Z,14.70
2019-04-16T12:22:26.151Z,12.70
2019-04-16T12:25:06.257Z,12.70
2019-04-16T12:28:06.711Z,12.53
2019-04-16T12:30:43.281Z,13.13
2019-04-16T12:33:19.695Z,13.97
2019-04-16T12:36:14.333Z,13.37
2019-04-16T12:38:58.950Z,12.70
2019-04-16T12:41:46.742Z,11.50
2019-04-16T12:44:45.238Z,11.63
2019-04-16T12:47:14.856Z,11.63
2019-04-16T12:50:19.033Z,12.70
2019-04-16T12:53:03.035Z,12.23
2019-04-16T12:55:41.123Z,11.10
2019-04-16T12:58:20.526Z,13.20
2019-04-16T13:01:03.261Z,12.60
2019-04-16T13:03:55.057Z,11.20
2019-04-16T13:06:32.704Z,12.60
2019-04-16T13:09:21.454Z,13.20
2019-04-16T13:12:19.445Z,13.07
2019-04-16T13:15:07.233Z,13.20
2019-04-16T13:17:47.844Z,11.77
2019-04-16T13:20:33.795Z,12.63
2019-04-16T13:23:09.367Z,13.37
2019-04-16T13:25:52.689Z,12.40
2019-04-16T13:28:23.184Z,12.47
2019-04-16T13:30:53.729Z,12.07
2019-04-16T13:33:23.609Z,12.43
2019-04-16T13:35:53.616Z,13.10
2019-04-16T13:38:24.909Z,12.53
2019-04-16T13:40:54.845Z,12.27
2019-04-16T13:43:29.449Z,12.27
2019-04-16T13:45:59.305Z,11.30
2019-04-16T13:48:59.401Z,12.20
2019-04-16T13:51:26.946Z,11.80
2019-04-16T13:54:14.658Z,10.80
2019-04-16T13:56:50.710Z,14.43
2019-04-16T13:59:53.585Z,11.60
2019-04-16T14:02:32.225Z,11.43
2019-04-16T14:05:04.336Z,12.50
2019-04-16T14:07:33.740Z,11.40
2019-04-16T14:10:03.609Z,11.90
2019-04-16T14:12:41.754Z,11.30
2019-04-16T14:15:07.047Z,10.83
2019-04-16T14:17:51.655Z,11.00
2019-04-16T14:20:12.340Z,10.90
2019-04-16T14:22:41.041Z,9.63
2019-04-16T14:25:11.143Z,10.13
2019-04-16T14:27:40.999Z,11.73
2019-04-16T14:30:17.362Z,10.73
2019-04-16T14:32:47.362Z,11.00
2019-04-16T14:35:32.985Z,10.10
2019-04-16T14:37:55.758Z,10.47
2019-04-16T14:40:26.876Z,10.40
2019-04-16T14:42:58.174Z,11.00
2019-04-16T14:45:53.406Z,9.97
2019-04-16T14:48:10.291Z,9.93
2019-04-16T14:50:40.208Z,11.20
2019-04-16T14:53:10.454Z,11.37
2019-04-16T14:55:59.159Z,10.43
2019-04-16T14:58:35.332Z,10.50
2019-04-16T15:01:26.906Z,10.20
2019-04-16T15:04:33.965Z,11.10
2019-04-16T15:07:21.663Z,11.23
2019-04-16T15:09:56.911Z,11.57
2019-04-16T15:12:36.207Z,10.77
2019-04-16T15:15:20.332Z,11.70
2019-04-16T15:17:54.323Z,10.70
2019-04-16T15:20:51.900Z,11.33
2019-04-16T15:23:41.210Z,10.80
2019-04-16T15:26:26.283Z,11.07
2019-04-16T15:29:05.553Z,10.60
2019-04-16T15:31:57.454Z,10.80
2019-04-16T15:34:32.372Z,10.10
2019-04-16T15:37:22.824Z,11.23
2019-04-16T15:40:00.734Z,10.33
2019-04-16T15:42:51.274Z,10.33
2019-04-16T15:45:29.136Z,9.30
2019-04-16T15:48:28.754Z,10.90
2019-04-16T15:51:16.295Z,11.57
2019-04-16T15:54:08.135Z,10.37
2019-04-16T15:56:45.850Z,9.70
2019-04-16T15:59:25.870Z,9.80
2019-04-16T16:02:12.510Z,10.60
2019-04-16T16:04:47.129Z,11.27
2019-04-16T16:07:23.974Z,11.83
2019-04-16T16:10:00.514Z,11.30
2019-04-16T16:12:32.237Z,10.43
2019-04-16T16:15:07.105Z,11.70
2019-04-16T16:17:34.079Z,11.20
2019-04-16T16:20:09.684Z,10.97
2019-04-16T16:22:35.957Z,10.97
2019-04-16T16:25:07.298Z,12.30
2019-04-16T16:27:41.704Z,11.30
2019-04-16T16:30:09.127Z,11.10
2019-04-16T16:32:39.329Z,10.87
2019-04-16T16:35:09.327Z,11.40
2019-04-16T16:37:39.191Z,10.77
2019-04-16T16:40:12.039Z,10.80
2019-04-16T16:42:41.173Z,11.33
2019-04-16T16:45:11.193Z,10.00
2019-04-16T16:47:41.620Z,11.60
2019-04-16T16:50:15.826Z,10.67
2019-04-16T16:53:04.387Z,11.07
2019-04-16T16:55:37.393Z,10.50
2019-04-16T16:58:41.851Z,11.40
2019-04-16T17:01:34.173Z,10.60
2019-04-16T17:04:06.931Z,10.10
2019-04-16T17:06:37.485Z,11.67
2019-04-16T17:09:09.761Z,12.23
2019-04-16T17:11:43.274Z,11.23
2019-04-16T17:14:11.907Z,11.30
2019-04-16T17:16:42.128Z,11.13
2019-04-16T17:19:12.400Z,9.60
2019-04-16T17:21:42.618Z,11.00
2019-04-16T17:24:12.812Z,10.87
2019-04-16T17:26:42.971Z,11.07
2019-04-16T17:29:13.484Z,11.60
2019-04-16T17:31:43.507Z,11.60
2019-04-16T17:34:13.799Z,11.10
2019-04-16T17:36:43.726Z,9.97
2019-04-16T17:39:16.001Z,10.90
2019-04-16T17:41:58.379Z,12.20
2019-04-16T17:44:51.538Z,10.03
2019-04-16T17:47:32.410Z,11.10
2019-04-16T17:50:04.944Z,11.13
2019-04-16T17:52:48.970Z,10.57
2019-04-16T17:55:37.080Z,10.40
2019-04-16T17:58:10.855Z,12.43
2019-04-16T18:01:23.056Z,9.90
2019-04-16T18:04:18.021Z,11.43
2019-04-16T18:07:09.518Z,10.93
2019-04-16T18:09:43.298Z,11.37
2019-04-16T18:12:41.391Z,10.10
2019-04-16T18:15:16.372Z,10.00
2019-04-16T18:18:20.399Z,10.53
2019-04-16T18:20:59.661Z,10.83
2019-04-16T18:23:41.098Z,9.90
2019-04-16T18:26:28.064Z,10.60
2019-04-16T18:29:02.010Z,9.90
2019-04-16T18:31:37.973Z,11.03
2019-04-16T18:34:14.990Z,9.23
2019-04-16T18:36:50.550Z,9.87
2019-04-16T18:39:31.172Z,9.90
2019-04-16T18:42:07.628Z,9.83
2019-04-16T18:44:47.868Z,9.47
2019-04-16T18:47:36.424Z,10.53
2019-04-16T18:50:09.628Z,8.83
2019-04-16T18:52:39.746Z,9.13
2019-04-16T18:55:09.584Z,10.10
2019-04-16T18:57:39.699Z,9.80
2019-04-16T19:00:32.144Z,9.17
2019-04-16T19:03:00.686Z,9.77
2019-04-16T19:05:30.556Z,8.20
2019-04-16T19:08:01.302Z,8.30
2019-04-16T19:10:31.714Z,9.03
2019-04-16T19:13:01.651Z,8.40
2019-04-16T19:15:31.532Z,8.20
2019-04-16T19:18:17.274Z,7.63
2019-04-16T19:20:33.307Z,8.03
2019-04-16T19:23:03.334Z,8.40
2019-04-16T19:25:33.469Z,7.47
2019-04-16T19:28:06.410Z,8.10
2019-04-16T19:30:35.317Z,9.00
2019-04-16T19:33:05.235Z,8.20
2019-04-16T19:35:35.091Z,7.53
2019-04-16T19:38:06.453Z,8.37
2019-04-16T19:40:36.805Z,8.57
2019-04-16T19:43:06.974Z,7.57
2019-04-16T19:45:36.817Z,7.50
2019-04-16T19:48:06.840Z,8.13
2019-04-16T19:50:37.303Z,7.43
2019-04-16T19:53:07.286Z,7.87
2019-04-16T19:55:37.185Z,8.40
2019-04-16T19:58:07.022Z,8.60
2019-04-16T20:00:36.873Z,8.63
2019-04-16T20:03:06.772Z,8.30
2019-04-16T20:05:36.603Z,8.87
2019-04-16T20:08:06.840Z,7.60
2019-04-16T20:10:37.354Z,8.30
2019-04-16T20:13:07.475Z,8.53
2019-04-16T20:15:37.663Z,8.70
2019-04-16T20:18:07.498Z,8.60
2019-04-16T20:20:37.323Z,8.40
2019-04-16T20:23:07.317Z,8.33
2019-04-16T20:25:37.214Z,7.67
2019-04-16T20:28:09.455Z,9.17
2019-04-16T20:30:39.017Z,8.27
2019-04-16T20:33:08.938Z,8.63
2019-04-16T20:35:39.203Z,7.73
2019-04-16T20:38:09.038Z,8.30
2019-04-16T20:40:38.907Z,8.13
2019-04-16T20:43:08.994Z,9.10
2019-04-16T20:45:38.932Z,8.57
2019-04-16T20:48:12.390Z,8.00
2019-04-16T20:50:40.645Z,7.40
2019-04-16T20:53:10.588Z,7.70
2019-04-16T20:55:40.809Z,7.80
2019-04-16T20:58:14.624Z,8.30
2019-04-16T21:00:45.830Z,8.10
2019-04-16T21:03:22.375Z,8.90
2019-04-16T21:05:57.795Z,7.97
2019-04-16T21:08:24.165Z,8.77
2019-04-16T21:10:50.899Z,9.70
2019-04-16T21:13:20.764Z,8.20
2019-04-16T21:15:50.619Z,9.30
2019-04-16T21:18:20.487Z,8.93
2019-04-16T21:20:51.092Z,8.83
2019-04-16T21:23:22.004Z,9.50
2019-04-16T21:25:52.446Z,8.37
2019-04-16T21:28:41.246Z,9.90
2019-04-16T21:31:17.684Z,9.67
2019-04-16T21:34:05.540Z,10.20
2019-04-16T21:36:53.325Z,9.50
2019-04-16T21:39:28.180Z,8.80
2019-04-16T21:42:01.695Z,9.83
2019-04-16T21:44:29.629Z,10.20
2019-04-16T21:46:59.543Z,10.70
2019-04-16T21:49:38.465Z,9.20
2019-04-16T21:52:08.029Z,10.00
2019-04-16T21:54:39.147Z,9.10
2019-04-16T21:57:13.472Z,9.20
2019-04-16T21:59:41.490Z,9.50
2019-04-16T22:02:22.080Z,9.47
2019-04-16T22:04:52.228Z,9.93
2019-04-16T22:07:24.693Z,10.47
2019-04-16T22:09:54.039Z,10.93
2019-04-16T22:12:23.954Z,10.03
2019-04-16T22:14:55.133Z,10.17
2019-04-16T22:17:25.403Z,9.40
2019-04-16T22:20:01.336Z,9.43
2019-04-16T22:22:28.028Z,9.20
2019-04-16T22:24:58.513Z,10.20
2019-04-16T22:27:28.381Z,10.00
2019-04-16T22:29:58.456Z,10.23
2019-04-16T22:32:30.961Z,10.70
2019-04-16T22:35:00.054Z,11.60
2019-04-16T22:37:29.926Z,11.33
2019-04-16T22:40:22.611Z,10.63
2019-04-16T22:43:06.321Z,9.17
2019-04-16T22:45:55.285Z,10.27
2019-04-16T22:48:25.391Z,10.27
2019-04-16T22:50:55.705Z,9.30
2019-04-16T22:53:25.526Z,8.97
2019-04-16T22:55:56.730Z,9.90
2019-04-16T22:58:28.935Z,10.23
2019-04-16T23:01:03.601Z,10.13
2019-04-16T23:03:33.388Z,9.60
2019-04-16T23:06:05.937Z,9.50
2019-04-16T23:08:34.796Z,11.87
2019-04-16T23:11:05.065Z,10.17
2019-04-16T23:13:35.286Z,9.63
2019-04-16T23:16:05.303Z,10.03
2019-04-16T23:18:35.505Z,9.20
2019-04-16T23:21:09.432Z,10.70
2019-04-16T23:23:37.058Z,8.97
2019-04-16T23:26:07.175Z,10.70
2019-04-16T23:28:39.712Z,9.27
2019-04-16T23:31:09.227Z,9.20
2019-04-16T23:33:39.409Z,10.37
2019-04-16T23:36:09.516Z,10.13
2019-04-16T23:38:39.608Z,9.80
2019-04-16T23:41:09.445Z,10.73
2019-04-16T23:44:10.913Z,10.20
2019-04-16T23:47:00.685Z,10.43
2019-04-16T23:49:50.975Z,10.87
2019-04-16T23:52:23.392Z,10.73
2019-04-16T23:55:02.412Z,10.70
2019-04-16T23:58:00.368Z,9.60
